Aérodrome :
LOGIN :

S'inscrire | Disclaimer

   EN    FR    IT 

 










Légende :    VFR   VFR Marginal   IFR   IFR Intensif   IFR Très Intensif
Visi : 
Plafond : 
>= 8 km
>= 3000ft
5 à 8 km
1000 à 3000 ft
1500m à 5 km
500 à 1000 ft
800 à 1500m
200 à 500 ft
< 800m
< 200 ft
Symboles :   Orages  Brouillard  Fortes neiges  Fortes précipitations  Vent > 20 kt
SIGMETs :   Divers  Orages  Givrage  Turbulence  Onde Orograph.  Cendres Volcan.







- Altitude de l'aérodrome : 121 ft
- Code IATA : HUY
- Voir les cartes d'approche


EGNJ - Humberside

DERNIER METAR :
  • 240750Z VRB02KT 7000 FEW040 21/19 Q1011

METARs EXPIRÉS :
  • 240720Z VRB03KT 7000 FEW040 20/19 Q1010
  • 240650Z VRB03KT 5000 HZ FEW040 19/19 Q1011
  • 240620Z 06007KT 5000 BR FEW028CB FEW038 19/18 Q1011
  • 240550Z 05004KT 5000 BR FEW025CB FEW035 19/18 Q1011 RETS RERA

TAF TAF EGNJ
Valide du 24 à 06h jusqu'au 24 à 15h UTC


240504Z 2406/2415 10007KT 9999 FEW045
BECMG 2406/2409 20010KT
PROB30
TEMPO 2406/2408 21015G25KT 4000 +SHRA TSGR BKN009
BECMG 2409/2412 26010KT
ATIS : +44 1652 682 020
Pas de NOTAMs connus pour ce terrain.
1 SIGMET publié pour la FIR London (EGTT) :
 
Orages noyés dans la masse avec grêle
EGTT SIGMET 03 VALID 240608/241000 EGRR
EGTT LONDON FIR EMBD TSGR FCST WI N5319 E00333 - N5133 E00202 - N5500 W00106 - N5500 E00137 - N5319 E00333 TOP FL380 MOV NE 35KT NC=



MET'MAP, la Météo Aéronautique d'un coup d'oeil ! - Copyright ORBIFLY Décembre 2007 - Disclaimer

ORBIFLY MET'MAP TEAM :

Programmation & Développement : Alexandra Zaïnal
Conception & Développement : Baudouin d'Aumeries
Co-Programmation & Développement : Marc-Olivier Méhu
Soutien technique & logistique : Manuel Goepfert

Contact : metmap@orbifly.com




SOURCES & CREDITS :

   NOAA